Time;durP1;ratioP1;P1;durP2;ratioP2;P2;SDS_P1;SDS_P2;PMS_P1;PMS_P2;Temp;Humidity;BMP_temperature;BMP_pressure;BME280_temperature;BME280_humidity;BME280_pressure;Samples;Min_cycle;Max_cycle;Signal;HPM_P1;HPM_P2
2023/10/27 00:01:27;;;;;;;;;;;14.00;61.10;;;;;;4948505;28;114633;-82
2023/10/27 00:03:54;;;;;;;;;;;14.00;61.20;;;;;;4948398;28;115422;-84
2023/10/27 00:06:21;;;;;;;;;;;14.10;61.20;;;;;;4948508;28;114652;-84
2023/10/27 00:08:49;;;;;;;;;;;14.00;61.20;;;;;;4948255;28;114342;-84
2023/10/27 00:11:16;;;;;;;;;;;14.00;61.20;;;;;;4948402;28;114420;-84
2023/10/27 00:13:43;;;;;;;;;;;14.00;61.10;;;;;;4947076;28;114824;-84
2023/10/27 00:16:10;;;;;;;;;;;13.90;61.10;;;;;;4947206;28;114654;-85
2023/10/27 00:18:37;;;;;;;;;;;13.90;61.30;;;;;;4948900;28;114339;-84
2023/10/27 00:21:04;;;;;;;;;;;13.90;61.30;;;;;;4931031;28;114590;-84
2023/10/27 00:23:32;;;;;;;;;;;13.90;61.30;;;;;;4947760;28;114919;-84
2023/10/27 00:26:00;;;;;;;;;;;14.00;61.30;;;;;;4953094;28;114587;-85
2023/10/27 00:28:28;;;;;;;;;;;14.00;61.30;;;;;;4948287;28;114469;-83
2023/10/27 00:30:55;;;;;;;;;;;13.90;61.30;;;;;;4949281;28;114297;-83
2023/10/27 00:33:22;;;;;;;;;;;14.00;61.30;;;;;;4948317;28;114948;-83
2023/10/27 00:35:50;;;;;;;;;;;14.00;61.30;;;;;;4948625;28;114862;-83
2023/10/27 00:38:17;;;;;;;;;;;13.90;61.30;;;;;;4947834;28;114421;-83
2023/10/27 00:40:44;;;;;;;;;;;13.90;61.40;;;;;;4947983;28;114645;-83
2023/10/27 00:43:16;;;;;;;;;;;14.00;61.40;;;;;;4946845;28;114960;-83
2023/10/27 00:45:49;;;;;;;;;;;14.00;61.30;;;;;;4948150;28;114802;-83
2023/10/27 00:48:20;;;;;;;;;;;14.00;61.30;;;;;;4947942;28;114460;-83
2023/10/27 00:50:47;;;;;;;;;;;13.90;61.30;;;;;;4947851;28;114528;-83
2023/10/27 00:53:15;;;;;;;;;;;13.90;61.40;;;;;;4946732;28;115092;-83
2023/10/27 00:55:42;;;;;;;;;;;13.90;61.30;;;;;;4946438;28;115559;-84
2023/10/27 00:58:09;;;;;;;;;;;13.90;61.30;;;;;;4947549;28;114295;-83
2023/10/27 01:00:36;;;;;;;;;;;13.90;61.40;;;;;;4947703;28;114393;-84
2023/10/27 01:03:04;;;;;;;;;;;13.90;61.50;;;;;;4946725;28;115410;-83
2023/10/27 01:05:31;;;;;;;;;;;13.90;61.50;;;;;;4947715;28;114608;-83
2023/10/27 01:07:58;;;;;;;;;;;13.80;61.40;;;;;;4947448;28;114467;-83
2023/10/27 01:10:26;;;;;;;;;;;13.80;61.40;;;;;;4947800;28;114336;-83
2023/10/27 01:12:53;;;;;;;;;;;13.70;61.40;;;;;;4930385;28;114819;-83
2023/10/27 01:15:20;;;;;;;;;;;13.80;61.50;;;;;;4946284;28;114700;-83
2023/10/27 01:17:47;;;;;;;;;;;13.80;61.60;;;;;;4948455;28;114430;-82
2023/10/27 01:20:14;;;;;;;;;;;13.80;61.70;;;;;;4948163;28;114383;-83
2023/10/27 01:22:42;;;;;;;;;;;13.80;61.60;;;;;;4945857;28;116120;-83
2023/10/27 01:25:09;;;;;;;;;;;13.80;61.70;;;;;;4947388;28;114587;-83
2023/10/27 01:27:36;;;;;;;;;;;13.80;61.70;;;;;;4946883;28;114496;-83
2023/10/27 01:30:04;;;;;;;;;;;13.80;61.70;;;;;;4947008;28;114451;-83
2023/10/27 01:32:31;;;;;;;;;;;13.80;61.70;;;;;;4945728;28;115003;-83
2023/10/27 01:34:58;;;;;;;;;;;13.80;61.70;;;;;;4945854;28;114586;-84
2023/10/27 01:37:26;;;;;;;;;;;13.80;61.70;;;;;;4947667;28;114440;-85
2023/10/27 01:39:53;;;;;;;;;;;13.80;61.70;;;;;;4946662;28;114420;-84
2023/10/27 01:42:22;;;;;;;;;;;13.80;61.70;;;;;;4946608;28;116871;-84
2023/10/27 01:44:49;;;;;;;;;;;13.80;61.70;;;;;;4929120;28;114764;-84
2023/10/27 01:47:16;;;;;;;;;;;13.80;61.70;;;;;;4947636;28;115040;-84
2023/10/27 01:49:43;;;;;;;;;;;13.80;61.60;;;;;;4946326;28;114475;-85
2023/10/27 01:52:11;;;;;;;;;;;13.80;61.70;;;;;;4961442;28;116817;-84
2023/10/27 01:54:41;;;;;;;;;;;13.90;61.60;;;;;;4945812;28;115165;-85
2023/10/27 01:57:08;;;;;;;;;;;13.80;61.60;;;;;;4962655;28;114408;-84
2023/10/27 01:59:35;;;;;;;;;;;13.80;61.70;;;;;;4979393;28;114447;-85
2023/10/27 02:02:02;;;;;;;;;;;13.80;61.70;;;;;;4977831;28;115027;-84
2023/10/27 02:04:34;;;;;;;;;;;13.80;61.60;;;;;;4945377;28;115036;-85
2023/10/27 02:07:01;;;;;;;;;;;13.80;61.70;;;;;;4947598;28;114218;-84
2023/10/27 02:09:28;;;;;;;;;;;13.80;61.60;;;;;;4949750;28;114679;-85
2023/10/27 02:11:56;;;;;;;;;;;13.80;61.70;;;;;;4948702;28;115213;-85
2023/10/27 02:14:24;;;;;;;;;;;13.80;61.70;;;;;;4954997;28;114576;-85
2023/10/27 02:16:52;;;;;;;;;;;13.80;61.70;;;;;;4962438;28;115349;-85
2023/10/27 02:19:19;;;;;;;;;;;13.80;61.70;;;;;;4950184;28;114714;-84
2023/10/27 02:21:48;;;;;;;;;;;13.80;61.70;;;;;;4948633;28;115358;-84
2023/10/27 02:24:15;;;;;;;;;;;13.80;61.70;;;;;;4948983;28;117146;-84
2023/10/27 02:26:42;;;;;;;;;;;13.80;61.60;;;;;;4917215;28;114397;-85
2023/10/27 02:29:11;;;;;;;;;;;13.80;61.70;;;;;;4965371;28;114483;-83
2023/10/27 02:31:38;;;;;;;;;;;13.80;61.70;;;;;;4948430;28;116307;-83
2023/10/27 02:34:05;;;;;;;;;;;13.80;61.70;;;;;;4949652;28;115286;-83
2023/10/27 02:36:32;;;;;;;;;;;13.70;61.70;;;;;;4951070;28;114544;-84
2023/10/27 02:38:59;;;;;;;;;;;13.80;61.60;;;;;;4950438;28;114449;-83
2023/10/27 02:41:27;;;;;;;;;;;13.70;61.60;;;;;;4949313;28;114986;-83
2023/10/27 02:43:56;;;;;;;;;;;13.70;61.70;;;;;;4949730;28;114776;-83
2023/10/27 02:46:23;;;;;;;;;;;13.70;61.70;;;;;;4949123;28;114563;-83
2023/10/27 02:48:51;;;;;;;;;;;13.70;61.70;;;;;;4950685;28;114516;-83
2023/10/27 02:51:19;;;;;;;;;;;13.70;61.80;;;;;;4949022;28;114981;-83
2023/10/27 02:53:46;;;;;;;;;;;13.80;61.80;;;;;;4948059;28;114658;-83
2023/10/27 02:56:13;;;;;;;;;;;13.70;61.80;;;;;;4950412;28;114539;-83
2023/10/27 02:58:40;;;;;;;;;;;13.80;61.80;;;;;;4950398;28;114588;-83
2023/10/27 03:01:10;;;;;;;;;;;13.80;61.80;;;;;;4949108;28;114896;-83
2023/10/27 03:03:41;;;;;;;;;;;13.80;61.80;;;;;;4949000;28;115823;-83
2023/10/27 03:06:08;;;;;;;;;;;13.80;61.70;;;;;;4948876;28;114249;-84
2023/10/27 03:08:35;;;;;;;;;;;13.80;61.70;;;;;;4949030;28;114467;-84
2023/10/27 03:11:02;;;;;;;;;;;13.80;61.70;;;;;;4948937;28;115241;-84
2023/10/27 03:13:29;;;;;;;;;;;13.80;61.70;;;;;;4948843;28;114789;-83
2023/10/27 03:15:57;;;;;;;;;;;13.80;61.70;;;;;;4948276;28;115159;-84
2023/10/27 03:18:25;;;;;;;;;;;13.80;61.70;;;;;;4949905;28;114486;-83
2023/10/27 03:20:58;;;;;;;;;;;13.80;61.70;;;;;;4948326;28;116202;-84
2023/10/27 03:23:26;;;;;;;;;;;13.80;61.70;;;;;;4948715;28;115235;-83
2023/10/27 03:25:54;;;;;;;;;;;13.80;61.70;;;;;;4948645;28;115297;-83
2023/10/27 03:28:21;;;;;;;;;;;13.70;61.70;;;;;;4950526;28;114924;-83
2023/10/27 03:30:49;;;;;;;;;;;13.80;61.70;;;;;;4949247;28;114945;-84
2023/10/27 03:33:17;;;;;;;;;;;13.70;61.70;;;;;;4949254;28;114824;-84
2023/10/27 03:35:46;;;;;;;;;;;13.70;61.70;;;;;;4949852;28;114680;-84
2023/10/27 03:38:14;;;;;;;;;;;13.70;61.70;;;;;;4949858;28;114566;-83
2023/10/27 03:40:41;;;;;;;;;;;13.70;61.70;;;;;;4946935;28;114859;-83
2023/10/27 03:43:09;;;;;;;;;;;13.70;61.70;;;;;;4948213;28;114488;-84
2023/10/27 03:45:36;;;;;;;;;;;13.70;61.70;;;;;;4949123;28;114294;-84
2023/10/27 03:48:03;;;;;;;;;;;13.70;61.70;;;;;;4948127;28;114275;-84
2023/10/27 03:50:30;;;;;;;;;;;13.70;61.70;;;;;;4946854;28;115385;-83
2023/10/27 03:52:58;;;;;;;;;;;13.70;61.70;;;;;;4946966;28;114372;-83
2023/10/27 03:55:25;;;;;;;;;;;13.70;61.70;;;;;;4947847;28;114747;-83
2023/10/27 03:57:52;;;;;;;;;;;13.70;61.70;;;;;;4947965;28;114586;-83
2023/10/27 04:00:20;;;;;;;;;;;13.70;61.70;;;;;;4930395;28;115475;-82
2023/10/27 04:02:47;;;;;;;;;;;13.70;61.70;;;;;;4948300;28;114695;-83
2023/10/27 04:05:14;;;;;;;;;;;13.70;61.80;;;;;;4952574;28;114267;-83
2023/10/27 04:07:40;;;;;;;;;;;13.70;61.80;;;;;;4955486;28;114298;-83
2023/10/27 04:10:08;;;;;;;;;;;13.70;61.70;;;;;;4948432;28;114943;-84
2023/10/27 04:12:35;;;;;;;;;;;13.70;61.80;;;;;;4947054;28;114649;-84
2023/10/27 04:15:02;;;;;;;;;;;13.70;61.80;;;;;;4949245;28;114393;-84
2023/10/27 04:17:29;;;;;;;;;;;13.70;61.70;;;;;;4948120;28;114579;-84
2023/10/27 04:19:56;;;;;;;;;;;13.80;61.70;;;;;;4947786;28;115044;-83
2023/10/27 04:22:23;;;;;;;;;;;13.70;61.80;;;;;;4947990;28;114698;-84
2023/10/27 04:24:50;;;;;;;;;;;13.80;61.70;;;;;;4949128;28;114437;-84
2023/10/27 04:27:17;;;;;;;;;;;13.70;61.70;;;;;;4949146;28;114102;-84
2023/10/27 04:29:44;;;;;;;;;;;13.80;61.70;;;;;;4947018;28;114892;-83
2023/10/27 04:32:13;;;;;;;;;;;13.70;61.70;;;;;;4947774;28;115408;-83
2023/10/27 04:34:40;;;;;;;;;;;13.80;61.70;;;;;;4948827;28;114364;-84
2023/10/27 04:37:08;;;;;;;;;;;13.80;61.70;;;;;;4948957;28;114301;-84
2023/10/27 04:39:35;;;;;;;;;;;13.70;61.80;;;;;;4913880;28;117245;-83
2023/10/27 04:42:02;;;;;;;;;;;13.80;61.70;;;;;;4962476;28;114696;-83
2023/10/27 04:44:29;;;;;;;;;;;13.70;61.70;;;;;;4948581;28;114274;-84
2023/10/27 04:46:56;;;;;;;;;;;13.70;61.60;;;;;;4948957;28;114385;-84
2023/10/27 04:49:23;;;;;;;;;;;13.70;61.60;;;;;;4946239;28;116013;-84
2023/10/27 04:51:50;;;;;;;;;;;13.70;61.60;;;;;;4947478;28;114391;-83
2023/10/27 04:54:17;;;;;;;;;;;13.70;61.60;;;;;;4948274;28;114608;-83
2023/10/27 04:56:44;;;;;;;;;;;13.70;61.70;;;;;;4948543;28;114686;-83
2023/10/27 04:59:11;;;;;;;;;;;13.70;61.70;;;;;;4946125;28;115044;-84
2023/10/27 05:01:38;;;;;;;;;;;13.70;61.70;;;;;;4946035;28;118021;-83
2023/10/27 05:04:05;;;;;;;;;;;13.70;61.70;;;;;;4948063;28;114523;-83
2023/10/27 05:06:33;;;;;;;;;;;13.70;61.70;;;;;;4948257;28;114514;-83
2023/10/27 05:09:00;;;;;;;;;;;13.70;61.80;;;;;;4946989;28;115287;-83
2023/10/27 05:11:27;;;;;;;;;;;13.70;61.80;;;;;;4947196;28;115207;-83
2023/10/27 05:13:54;;;;;;;;;;;13.70;61.80;;;;;;4948234;28;114423;-82
2023/10/27 05:16:22;;;;;;;;;;;13.70;61.80;;;;;;4947577;28;114635;-84
2023/10/27 05:18:49;;;;;;;;;;;13.70;61.80;;;;;;4929587;28;117685;-83
2023/10/27 05:21:17;;;;;;;;;;;13.70;61.80;;;;;;4946717;28;115017;-83
2023/10/27 05:23:44;;;;;;;;;;;13.70;61.80;;;;;;4947898;28;114580;-84
2023/10/27 05:26:11;;;;;;;;;;;13.70;61.80;;;;;;4930645;28;114475;-82
2023/10/27 05:28:38;;;;;;;;;;;13.70;61.80;;;;;;4946870;28;116082;-85
2023/10/27 05:31:05;;;;;;;;;;;13.80;61.80;;;;;;4946665;28;114556;-83
2023/10/27 05:33:32;;;;;;;;;;;13.70;61.70;;;;;;4946288;28;114433;-83
2023/10/27 05:35:59;;;;;;;;;;;13.70;61.70;;;;;;4948005;28;114747;-82
2023/10/27 05:38:26;;;;;;;;;;;13.70;61.70;;;;;;4946375;28;115334;-84
2023/10/27 05:40:53;;;;;;;;;;;13.80;61.80;;;;;;4929331;28;114587;-84
2023/10/27 05:43:20;;;;;;;;;;;13.80;61.80;;;;;;4938380;28;115205;-85
2023/10/27 05:45:47;;;;;;;;;;;13.80;61.80;;;;;;4969773;28;114432;-85
2023/10/27 05:48:15;;;;;;;;;;;13.70;61.60;;;;;;4969641;28;114819;-84
2023/10/27 05:50:42;;;;;;;;;;;13.70;61.60;;;;;;4969722;28;115412;-85
2023/10/27 05:53:09;;;;;;;;;;;13.70;61.70;;;;;;4970784;28;114226;-83
2023/10/27 05:55:36;;;;;;;;;;;13.70;61.70;;;;;;4972709;28;114231;-83
2023/10/27 05:58:05;;;;;;;;;;;13.70;61.80;;;;;;4976311;28;114510;-85
2023/10/27 06:00:33;;;;;;;;;;;13.80;61.70;;;;;;4969759;28;115227;-84
2023/10/27 06:03:00;;;;;;;;;;;13.80;61.80;;;;;;4967888;28;114682;-83
2023/10/27 06:05:27;;;;;;;;;;;13.80;61.80;;;;;;4970408;28;114443;-84
2023/10/27 06:07:54;;;;;;;;;;;13.80;61.80;;;;;;4967648;28;115328;-85
2023/10/27 06:10:21;;;;;;;;;;;13.80;61.70;;;;;;4969625;28;114635;-84
2023/10/27 06:12:49;;;;;;;;;;;13.80;61.70;;;;;;4970657;28;114378;-85
2023/10/27 06:15:16;;;;;;;;;;;13.70;61.60;;;;;;4970752;28;114103;-84
2023/10/27 06:17:43;;;;;;;;;;;13.80;61.70;;;;;;4969349;28;114928;-84
2023/10/27 06:20:10;;;;;;;;;;;13.70;61.70;;;;;;4968395;28;114578;-84
2023/10/27 06:22:44;;;;;;;;;;;13.70;61.80;;;;;;4966727;28;114229;-83
2023/10/27 06:25:11;;;;;;;;;;;13.70;61.70;;;;;;4969602;28;114603;-84
2023/10/27 06:27:38;;;;;;;;;;;13.80;61.80;;;;;;4965587;28;115556;-84
2023/10/27 06:30:06;;;;;;;;;;;13.80;61.80;;;;;;4966291;28;117494;-83
2023/10/27 06:32:33;;;;;;;;;;;13.80;61.80;;;;;;4969045;28;114639;-84
2023/10/27 06:35:01;;;;;;;;;;;13.80;61.80;;;;;;4959528;28;114501;-84
2023/10/27 06:37:28;;;;;;;;;;;13.80;61.80;;;;;;4966891;28;114844;-83
2023/10/27 06:39:58;;;;;;;;;;;13.80;61.80;;;;;;4966847;28;114690;-83
2023/10/27 06:42:28;;;;;;;;;;;13.80;61.80;;;;;;4969252;28;114607;-83
2023/10/27 06:44:59;;;;;;;;;;;13.80;61.80;;;;;;4969252;28;114407;-84
2023/10/27 06:47:27;;;;;;;;;;;13.80;61.80;;;;;;4969113;28;114932;-83
2023/10/27 06:49:55;;;;;;;;;;;13.80;61.70;;;;;;4967641;28;117886;-83
2023/10/27 06:52:22;;;;;;;;;;;13.80;61.80;;;;;;4969501;28;114466;-84
2023/10/27 06:54:49;;;;;;;;;;;13.80;61.70;;;;;;4969755;28;114579;-83
2023/10/27 06:57:16;;;;;;;;;;;13.80;61.80;;;;;;4968320;28;114812;-84
2023/10/27 06:59:43;;;;;;;;;;;13.80;61.80;;;;;;4968459;28;114603;-84
2023/10/27 07:02:10;;;;;;;;;;;13.80;61.80;;;;;;4969357;28;114593;-83
2023/10/27 07:04:37;;;;;;;;;;;13.80;61.80;;;;;;4969588;28;114709;-84
2023/10/27 07:07:05;;;;;;;;;;;13.80;61.80;;;;;;4967154;28;117849;-85
2023/10/27 07:09:51;;;;;;;;;;;13.80;61.90;;;;;;4968348;28;115376;-85
2023/10/27 07:12:18;;;;;;;;;;;13.80;61.80;;;;;;4951711;28;114442;-84
2023/10/27 07:14:45;;;;;;;;;;;13.80;61.80;;;;;;4969612;28;114301;-84
2023/10/27 07:17:12;;;;;;;;;;;13.80;61.80;;;;;;4968195;28;115130;-85
2023/10/27 07:19:40;;;;;;;;;;;13.90;61.80;;;;;;4950442;28;116875;-84
2023/10/27 07:22:09;;;;;;;;;;;13.80;61.80;;;;;;4986371;28;116332;-85
2023/10/27 07:24:36;;;;;;;;;;;13.90;61.90;;;;;;4986980;28;114470;-85
2023/10/27 07:27:03;;;;;;;;;;;13.90;61.90;;;;;;4952924;28;117627;-84
2023/10/27 07:29:31;;;;;;;;;;;13.90;61.90;;;;;;4986123;28;114870;-84
2023/10/27 07:31:59;;;;;;;;;;;13.90;61.90;;;;;;4969595;28;114496;-86
2023/10/27 07:34:26;;;;;;;;;;;13.80;62.00;;;;;;4986763;28;114498;-85
2023/10/27 07:36:53;;;;;;;;;;;13.80;62.00;;;;;;4968903;28;115562;-83
2023/10/27 07:39:22;;;;;;;;;;;13.80;62.10;;;;;;4986110;28;115031;-85
2023/10/27 07:41:50;;;;;;;;;;;13.80;62.10;;;;;;4986703;28;114407;-85
2023/10/27 07:44:17;;;;;;;;;;;13.80;62.10;;;;;;4953772;28;114745;-83
2023/10/27 07:46:44;;;;;;;;;;;13.80;62.20;;;;;;4980008;28;116318;-84
2023/10/27 07:49:11;;;;;;;;;;;13.80;62.20;;;;;;4992789;28;115171;-84
2023/10/27 07:51:39;;;;;;;;;;;13.80;62.30;;;;;;4953363;28;114505;-84
2023/10/27 07:54:06;;;;;;;;;;;13.80;62.30;;;;;;4985181;28;114476;-83
2023/10/27 07:56:34;;;;;;;;;;;13.90;62.20;;;;;;4950876;28;116067;-85
2023/10/27 07:59:01;;;;;;;;;;;13.90;62.20;;;;;;4970348;28;114533;-85
2023/10/27 08:01:28;;;;;;;;;;;13.90;62.20;;;;;;4967983;28;114509;-84
2023/10/27 08:03:55;;;;;;;;;;;13.90;62.20;;;;;;4967356;28;114703;-85
2023/10/27 08:06:23;;;;;;;;;;;13.80;62.20;;;;;;4918422;28;118267;-83
2023/10/27 08:08:50;;;;;;;;;;;13.80;62.40;;;;;;4966886;28;114633;-84
2023/10/27 08:11:18;;;;;;;;;;;13.80;62.40;;;;;;4970052;28;114699;-84
2023/10/27 08:13:45;;;;;;;;;;;13.70;62.50;;;;;;4967628;28;114645;-85
2023/10/27 08:16:13;;;;;;;;;;;13.70;62.60;;;;;;4966415;28;118867;-86
2023/10/27 08:18:40;;;;;;;;;;;13.70;62.70;;;;;;4966495;28;118279;-83
2023/10/27 08:21:08;;;;;;;;;;;13.70;62.70;;;;;;4963734;28;114504;-85
2023/10/27 08:23:35;;;;;;;;;;;13.70;62.80;;;;;;4967906;28;114621;-85
2023/10/27 08:26:03;;;;;;;;;;;13.70;62.90;;;;;;4950106;28;114921;-85
2023/10/27 08:28:30;;;;;;;;;;;13.70;62.80;;;;;;4966576;28;114915;-84
2023/10/27 08:30:57;;;;;;;;;;;13.70;62.70;;;;;;4966791;28;114399;-85
2023/10/27 08:33:25;;;;;;;;;;;13.70;62.90;;;;;;4983592;28;114688;-85
2023/10/27 08:35:52;;;;;;;;;;;13.70;62.90;;;;;;4982244;28;115284;-83
2023/10/27 08:38:19;;;;;;;;;;;13.70;63.00;;;;;;4965553;28;114579;-84
2023/10/27 08:40:46;;;;;;;;;;;13.70;63.00;;;;;;4968372;28;114530;-85
2023/10/27 08:43:13;;;;;;;;;;;13.70;63.40;;;;;;4968191;28;114325;-84
2023/10/27 08:45:41;;;;;;;;;;;13.50;63.20;;;;;;4974295;28;115665;-84
2023/10/27 08:48:09;;;;;;;;;;;13.50;63.30;;;;;;4967066;28;114604;-83
2023/10/27 08:50:40;;;;;;;;;;;13.50;63.50;;;;;;4966851;28;116981;-84
2023/10/27 08:53:12;;;;;;;;;;;13.50;63.60;;;;;;4968503;28;114540;-86
2023/10/27 08:55:39;;;;;;;;;;;13.50;63.50;;;;;;4967228;28;115030;-84
2023/10/27 08:58:06;;;;;;;;;;;13.60;63.60;;;;;;4966103;28;115324;-84
2023/10/27 09:00:34;;;;;;;;;;;13.60;63.50;;;;;;4966598;28;114465;-84
2023/10/27 09:03:16;;;;;;;;;;;13.60;63.60;;;;;;4966155;28;114589;-86
2023/10/27 09:05:44;;;;;;;;;;;13.60;63.60;;;;;;4968270;28;114917;-85
2023/10/27 09:08:11;;;;;;;;;;;13.60;63.60;;;;;;4966960;28;115021;-84
2023/10/27 09:10:38;;;;;;;;;;;13.70;63.60;;;;;;4950623;28;114231;-85
2023/10/27 09:13:09;;;;;;;;;;;13.60;63.50;;;;;;4951249;28;114507;-84
2023/10/27 09:15:39;;;;;;;;;;;13.60;63.50;;;;;;4975875;28;118073;-84
2023/10/27 09:18:08;;;;;;;;;;;13.70;63.60;;;;;;4965160;28;116567;-84
2023/10/27 09:20:45;;;;;;;;;;;13.70;63.60;;;;;;4966989;28;114411;-84
2023/10/27 09:23:12;;;;;;;;;;;13.60;63.60;;;;;;4967610;28;114265;-84
2023/10/27 09:25:39;;;;;;;;;;;13.60;63.60;;;;;;4966455;28;114910;-84
2023/10/27 09:28:08;;;;;;;;;;;13.70;63.60;;;;;;4965239;28;114655;-84
2023/10/27 09:30:39;;;;;;;;;;;13.70;63.50;;;;;;4967836;28;114692;-84
2023/10/27 09:33:20;;;;;;;;;;;13.70;63.50;;;;;;4967740;28;114564;-84
2023/10/27 09:35:48;;;;;;;;;;;13.70;63.60;;;;;;4968812;28;114633;-86
2023/10/27 09:38:15;;;;;;;;;;;13.70;63.60;;;;;;4980944;28;114979;-84
2023/10/27 09:40:48;;;;;;;;;;;13.70;63.50;;;;;;4983284;28;114329;-84
2023/10/27 09:43:19;;;;;;;;;;;13.70;63.50;;;;;;4967629;28;114234;-84
2023/10/27 09:45:52;;;;;;;;;;;13.70;63.70;;;;;;4965686;28;117696;-85
2023/10/27 09:48:24;;;;;;;;;;;13.60;63.50;;;;;;4967029;28;114548;-85
2023/10/27 09:51:16;;;;;;;;;;;13.60;63.60;;;;;;4966684;28;114604;-84
2023/10/27 09:53:43;;;;;;;;;;;13.60;63.70;;;;;;4967746;28;114528;-85
2023/10/27 09:56:10;;;;;;;;;;;13.60;63.70;;;;;;4968321;28;114906;-86
2023/10/27 09:58:38;;;;;;;;;;;13.60;63.70;;;;;;4972679;28;115196;-85
2023/10/27 10:01:05;;;;;;;;;;;13.60;63.80;;;;;;4966661;28;114402;-84
2023/10/27 10:03:32;;;;;;;;;;;13.60;63.80;;;;;;4967255;28;114555;-84
2023/10/27 10:06:10;;;;;;;;;;;13.50;63.80;;;;;;4965136;28;115470;-85
2023/10/27 10:08:38;;;;;;;;;;;13.60;63.80;;;;;;4975056;28;115402;-85
2023/10/27 10:11:12;;;;;;;;;;;13.60;63.90;;;;;;4966905;28;114330;-85
2023/10/27 10:13:40;;;;;;;;;;;13.60;63.90;;;;;;4949835;28;114458;-84
2023/10/27 10:16:08;;;;;;;;;;;13.50;64.00;;;;;;4965028;28;117505;-85
2023/10/27 10:18:35;;;;;;;;;;;13.50;63.90;;;;;;4966254;28;114460;-85
2023/10/27 10:21:03;;;;;;;;;;;13.50;64.00;;;;;;4950228;28;114512;-86
2023/10/27 10:23:44;;;;;;;;;;;13.50;64.00;;;;;;4966661;28;114593;-84
2023/10/27 10:26:11;;;;;;;;;;;13.50;64.20;;;;;;4966082;28;115294;-86
2023/10/27 10:28:40;;;;;;;;;;;13.50;64.00;;;;;;4968466;28;116682;-85
2023/10/27 10:31:07;;;;;;;;;;;13.50;64.00;;;;;;4971198;28;114578;-85
2023/10/27 10:33:34;;;;;;;;;;;13.50;64.20;;;;;;4970560;28;114254;-84
2023/10/27 10:36:18;;;;;;;;;;;13.50;64.30;;;;;;4968059;28;115408;-84
2023/10/27 10:38:58;;;;;;;;;;;13.50;64.30;;;;;;4994932;28;117874;-85
2023/10/27 10:41:40;;;;;;;;;;;13.60;64.20;;;;;;4979130;28;114545;-86
2023/10/27 10:44:11;;;;;;;;;;;13.60;64.10;;;;;;4989326;28;114690;-85
2023/10/27 10:46:38;;;;;;;;;;;13.50;64.20;;;;;;4986190;28;114902;-85
2023/10/27 10:49:06;;;;;;;;;;;13.50;64.20;;;;;;4975023;28;116216;-83
2023/10/27 10:51:39;;;;;;;;;;;13.50;64.30;;;;;;4969345;28;114455;-84
2023/10/27 10:54:10;;;;;;;;;;;13.50;64.30;;;;;;4988828;28;115036;-85
2023/10/27 10:56:40;;;;;;;;;;;13.50;64.30;;;;;;4953801;28;116151;-84
2023/10/27 10:59:08;;;;;;;;;;;13.40;64.40;;;;;;4983056;28;116492;-85
2023/10/27 11:01:35;;;;;;;;;;;13.30;64.60;;;;;;4988003;28;114398;-84
2023/10/27 11:04:02;;;;;;;;;;;13.30;64.70;;;;;;4988312;28;114640;-84
2023/10/27 11:06:29;;;;;;;;;;;13.40;64.60;;;;;;4986289;28;116083;-84
2023/10/27 11:08:57;;;;;;;;;;;13.50;64.50;;;;;;4985255;28;115102;-85
2023/10/27 11:11:32;;;;;;;;;;;13.40;64.50;;;;;;4967362;28;114547;-84
2023/10/27 11:14:13;;;;;;;;;;;13.40;64.50;;;;;;4976872;28;114641;-83
2023/10/27 11:16:40;;;;;;;;;;;13.50;64.60;;;;;;4968195;28;114573;-84
2023/10/27 11:19:14;;;;;;;;;;;13.50;64.50;;;;;;4948438;28;116513;-84
2023/10/27 11:21:41;;;;;;;;;;;13.60;64.50;;;;;;5000928;28;114502;-85
2023/10/27 11:24:08;;;;;;;;;;;13.70;64.40;;;;;;4969556;28;114440;-83
2023/10/27 11:26:42;;;;;;;;;;;13.60;64.40;;;;;;4973082;28;115376;-82
2023/10/27 11:29:09;;;;;;;;;;;13.70;64.50;;;;;;4995536;28;115398;-84
2023/10/27 11:31:40;;;;;;;;;;;13.60;64.50;;;;;;4983420;28;114553;-84
2023/10/27 11:34:07;;;;;;;;;;;13.60;64.60;;;;;;4974761;28;114339;-85
2023/10/27 11:36:44;;;;;;;;;;;13.60;64.60;;;;;;4968001;28;115941;-84
2023/10/27 11:39:12;;;;;;;;;;;13.60;64.60;;;;;;4967330;28;115423;-84
2023/10/27 11:41:40;;;;;;;;;;;13.60;64.60;;;;;;4969289;28;114470;-84
2023/10/27 11:44:07;;;;;;;;;;;13.60;64.70;;;;;;4969364;28;114543;-85
2023/10/27 11:46:34;;;;;;;;;;;13.60;64.70;;;;;;4966645;28;115361;-84
2023/10/27 11:49:02;;;;;;;;;;;13.50;64.70;;;;;;4968208;28;115760;-85
2023/10/27 11:51:30;;;;;;;;;;;13.50;64.80;;;;;;4963477;28;114326;-85
2023/10/27 11:53:57;;;;;;;;;;;13.50;64.80;;;;;;4973548;28;115169;-85
2023/10/27 11:56:24;;;;;;;;;;;13.50;64.90;;;;;;4981906;28;115914;-85
2023/10/27 11:58:51;;;;;;;;;;;13.50;64.80;;;;;;4967555;28;114912;-85
2023/10/27 12:01:19;;;;;;;;;;;13.50;64.90;;;;;;4968652;28;114524;-85
2023/10/27 12:03:46;;;;;;;;;;;13.50;65.00;;;;;;4951405;28;114544;-84
2023/10/27 12:06:14;;;;;;;;;;;13.40;65.10;;;;;;4967636;28;115013;-84
2023/10/27 12:08:41;;;;;;;;;;;13.40;65.10;;;;;;4967528;28;114534;-85
2023/10/27 12:11:08;;;;;;;;;;;13.30;65.20;;;;;;4982932;28;114377;-85
2023/10/27 12:13:35;;;;;;;;;;;13.30;65.30;;;;;;4972456;28;114417;-84
2023/10/27 12:16:03;;;;;;;;;;;13.30;65.40;;;;;;4966012;28;117344;-85
2023/10/27 12:18:32;;;;;;;;;;;13.30;65.30;;;;;;4950040;28;114734;-84
2023/10/27 12:21:02;;;;;;;;;;;13.30;65.30;;;;;;4965920;28;114556;-84
2023/10/27 12:23:30;;;;;;;;;;;13.30;65.40;;;;;;4956555;28;114925;-84
2023/10/27 12:25:57;;;;;;;;;;;13.30;65.60;;;;;;4985678;28;115126;-83
2023/10/27 12:28:27;;;;;;;;;;;13.20;65.60;;;;;;4985876;28;114582;-86
2023/10/27 12:30:54;;;;;;;;;;;13.20;65.70;;;;;;4988174;28;114471;-85
2023/10/27 12:33:21;;;;;;;;;;;13.20;65.70;;;;;;4987384;28;115311;-84
2023/10/27 12:35:49;;;;;;;;;;;13.10;65.80;;;;;;4949615;28;114926;-83
2023/10/27 12:38:17;;;;;;;;;;;13.10;65.90;;;;;;4963334;28;114738;-84
2023/10/27 12:40:44;;;;;;;;;;;13.20;66.00;;;;;;4978977;28;114820;-83
2023/10/27 12:43:14;;;;;;;;;;;13.20;65.90;;;;;;4965783;28;114343;-84
2023/10/27 12:45:42;;;;;;;;;;;13.10;65.90;;;;;;4979005;28;115037;-84
2023/10/27 12:48:09;;;;;;;;;;;13.00;66.10;;;;;;4981232;28;115054;-85
2023/10/27 12:50:36;;;;;;;;;;;13.00;66.20;;;;;;4974739;28;115159;-85
2023/10/27 12:53:03;;;;;;;;;;;13.00;66.20;;;;;;4968030;28;114422;-85
2023/10/27 12:55:30;;;;;;;;;;;13.00;66.40;;;;;;4965655;28;115132;-85
2023/10/27 12:58:08;;;;;;;;;;;13.00;66.30;;;;;;4965632;28;115281;-85
2023/10/27 13:00:36;;;;;;;;;;;13.00;66.30;;;;;;4951086;28;114473;-85
2023/10/27 13:03:04;;;;;;;;;;;13.00;66.50;;;;;;4966431;28;115069;-85
2023/10/27 13:05:34;;;;;;;;;;;13.00;66.50;;;;;;4965581;28;114886;-84
2023/10/27 13:08:02;;;;;;;;;;;13.00;66.50;;;;;;4949309;28;117962;-84
2023/10/27 13:10:30;;;;;;;;;;;12.90;66.50;;;;;;4963161;28;114416;-84
2023/10/27 13:13:00;;;;;;;;;;;12.90;66.70;;;;;;4984710;28;114844;-86
2023/10/27 13:15:28;;;;;;;;;;;12.90;66.80;;;;;;4987179;28;117943;-84
2023/10/27 13:17:55;;;;;;;;;;;12.80;66.70;;;;;;4986659;28;114281;-83
2023/10/27 13:20:22;;;;;;;;;;;12.70;66.80;;;;;;4984984;28;114174;-84
2023/10/27 13:22:49;;;;;;;;;;;12.60;67.20;;;;;;4956759;28;114850;-86
2023/10/27 13:25:17;;;;;;;;;;;12.40;67.30;;;;;;4968824;28;117881;-84
2023/10/27 13:27:45;;;;;;;;;;;12.40;67.60;;;;;;4964414;28;114656;-85
2023/10/27 13:30:13;;;;;;;;;;;12.20;67.90;;;;;;4966525;28;114464;-86
2023/10/27 13:32:43;;;;;;;;;;;12.20;68.00;;;;;;4975324;28;114594;-85
2023/10/27 13:35:11;;;;;;;;;;;12.10;68.30;;;;;;4966237;28;118849;-85
2023/10/27 13:37:38;;;;;;;;;;;12.10;68.60;;;;;;4966153;28;114663;-84
2023/10/27 13:40:09;;;;;;;;;;;12.00;68.70;;;;;;4966052;28;114567;-85
2023/10/27 13:42:36;;;;;;;;;;;12.00;68.80;;;;;;4967795;28;114506;-85
2023/10/27 13:45:03;;;;;;;;;;;11.90;68.90;;;;;;4964436;28;114876;-84
2023/10/27 13:47:31;;;;;;;;;;;11.90;69.20;;;;;;4988008;28;114576;-85
2023/10/27 13:49:58;;;;;;;;;;;11.80;69.20;;;;;;4959497;28;114612;-85
2023/10/27 13:52:25;;;;;;;;;;;11.80;69.30;;;;;;4966861;28;114431;-84
2023/10/27 13:54:53;;;;;;;;;;;11.80;69.30;;;;;;4995605;28;114850;-85
2023/10/27 13:57:21;;;;;;;;;;;11.70;69.60;;;;;;4978933;28;114795;-85
2023/10/27 13:59:48;;;;;;;;;;;11.70;69.80;;;;;;4971747;28;114633;-85
2023/10/27 14:02:15;;;;;;;;;;;11.60;69.90;;;;;;4964533;28;117152;-85
2023/10/27 14:04:42;;;;;;;;;;;11.60;69.90;;;;;;4987978;28;116447;-85
2023/10/27 14:07:10;;;;;;;;;;;11.50;70.10;;;;;;4987458;28;114678;-85
2023/10/27 14:09:37;;;;;;;;;;;11.50;70.20;;;;;;4988336;28;114636;-85